sensor_id;sensor_type;location;lat;lon;timestamp;temperature;humidity
49731;DHT22;35622;52.008;5.426;2024-02-23T00:00:28;8.20;99.90
49731;DHT22;35622;52.008;5.426;2024-02-23T00:02:54;8.00;99.90
49731;DHT22;35622;52.008;5.426;2024-02-23T00:05:21;8.20;99.90
49731;DHT22;35622;52.008;5.426;2024-02-23T00:07:47;8.40;99.90
49731;DHT22;35622;52.008;5.426;2024-02-23T00:10:13;8.60;99.90
49731;DHT22;35622;52.008;5.426;2024-02-23T00:12:38;8.60;99.90
49731;DHT22;35622;52.008;5.426;2024-02-23T00:15:04;8.60;99.90
49731;DHT22;35622;52.008;5.426;2024-02-23T00:17:30;8.60;99.90
49731;DHT22;35622;52.008;5.426;2024-02-23T00:19:55;8.80;99.90
49731;DHT22;35622;52.008;5.426;2024-02-23T00:22:21;8.90;99.90
49731;DHT22;35622;52.008;5.426;2024-02-23T00:24:47;9.00;99.90
49731;DHT22;35622;52.008;5.426;2024-02-23T00:27:12;9.10;99.90
49731;DHT22;35622;52.008;5.426;2024-02-23T00:29:38;9.20;99.90
49731;DHT22;35622;52.008;5.426;2024-02-23T00:32:04;9.30;99.90
49731;DHT22;35622;52.008;5.426;2024-02-23T00:34:29;9.30;99.90
49731;DHT22;35622;52.008;5.426;2024-02-23T00:36:57;9.30;99.90
49731;DHT22;35622;52.008;5.426;2024-02-23T00:39:22;9.00;99.90
49731;DHT22;35622;52.008;5.426;2024-02-23T00:41:48;9.00;99.90
49731;DHT22;35622;52.008;5.426;2024-02-23T00:44:14;8.70;99.90
49731;DHT22;35622;52.008;5.426;2024-02-23T00:46:40;8.40;99.90
49731;DHT22;35622;52.008;5.426;2024-02-23T00:49:06;8.30;99.90
49731;DHT22;35622;52.008;5.426;2024-02-23T00:51:31;8.60;99.90
49731;DHT22;35622;52.008;5.426;2024-02-23T00:53:57;8.60;99.90
49731;DHT22;35622;52.008;5.426;2024-02-23T00:56:23;8.60;99.90
49731;DHT22;35622;52.008;5.426;2024-02-23T00:58:49;8.90;99.90
49731;DHT22;35622;52.008;5.426;2024-02-23T01:01:14;9.00;99.90
49731;DHT22;35622;52.008;5.426;2024-02-23T01:03:40;9.10;99.90
49731;DHT22;35622;52.008;5.426;2024-02-23T01:06:06;8.80;99.90
49731;DHT22;35622;52.008;5.426;2024-02-23T01:08:31;8.60;99.90
49731;DHT22;35622;52.008;5.426;2024-02-23T01:10:57;8.50;99.90
49731;DHT22;35622;52.008;5.426;2024-02-23T01:13:22;8.70;99.90
49731;DHT22;35622;52.008;5.426;2024-02-23T01:15:48;8.80;99.90
49731;DHT22;35622;52.008;5.426;2024-02-23T01:18:14;8.60;99.90
49731;DHT22;35622;52.008;5.426;2024-02-23T01:20:39;8.90;99.90
49731;DHT22;35622;52.008;5.426;2024-02-23T01:23:05;8.70;99.90
49731;DHT22;35622;52.008;5.426;2024-02-23T01:25:30;8.60;99.90
49731;DHT22;35622;52.008;5.426;2024-02-23T01:27:56;8.70;99.90
49731;DHT22;35622;52.008;5.426;2024-02-23T01:30:22;8.40;99.90
49731;DHT22;35622;52.008;5.426;2024-02-23T01:32:48;8.50;99.90
49731;DHT22;35622;52.008;5.426;2024-02-23T01:35:13;8.20;99.90
49731;DHT22;35622;52.008;5.426;2024-02-23T01:37:39;8.00;99.90
49731;DHT22;35622;52.008;5.426;2024-02-23T01:40:05;8.00;99.90
49731;DHT22;35622;52.008;5.426;2024-02-23T01:42:31;8.30;99.90
49731;DHT22;35622;52.008;5.426;2024-02-23T01:44:57;8.20;99.90
49731;DHT22;35622;52.008;5.426;2024-02-23T01:47:24;8.10;99.90
49731;DHT22;35622;52.008;5.426;2024-02-23T01:49:50;8.20;99.90
49731;DHT22;35622;52.008;5.426;2024-02-23T01:52:17;8.40;99.90
49731;DHT22;35622;52.008;5.426;2024-02-23T01:54:43;7.90;99.90
49731;DHT22;35622;52.008;5.426;2024-02-23T01:57:09;7.80;99.90
49731;DHT22;35622;52.008;5.426;2024-02-23T01:59:36;7.70;99.90
49731;DHT22;35622;52.008;5.426;2024-02-23T02:02:04;7.90;99.90
49731;DHT22;35622;52.008;5.426;2024-02-23T02:04:30;8.20;99.90
49731;DHT22;35622;52.008;5.426;2024-02-23T02:06:57;8.30;99.90
49731;DHT22;35622;52.008;5.426;2024-02-23T02:09:23;8.20;99.90
49731;DHT22;35622;52.008;5.426;2024-02-23T02:11:49;8.30;99.90
49731;DHT22;35622;52.008;5.426;2024-02-23T02:14:16;8.10;99.90
49731;DHT22;35622;52.008;5.426;2024-02-23T02:16:42;8.20;99.90
49731;DHT22;35622;52.008;5.426;2024-02-23T02:19:09;8.20;99.90
49731;DHT22;35622;52.008;5.426;2024-02-23T02:21:35;8.10;99.90
49731;DHT22;35622;52.008;5.426;2024-02-23T02:24:01;8.10;99.90
49731;DHT22;35622;52.008;5.426;2024-02-23T02:26:28;8.30;99.90
49731;DHT22;35622;52.008;5.426;2024-02-23T02:28:54;8.40;99.90
49731;DHT22;35622;52.008;5.426;2024-02-23T02:31:19;8.30;99.90
49731;DHT22;35622;52.008;5.426;2024-02-23T02:33:45;8.20;99.90
49731;DHT22;35622;52.008;5.426;2024-02-23T02:36:10;8.30;99.90
49731;DHT22;35622;52.008;5.426;2024-02-23T02:38:37;8.20;99.90
49731;DHT22;35622;52.008;5.426;2024-02-23T02:41:03;8.20;99.90
49731;DHT22;35622;52.008;5.426;2024-02-23T02:43:29;8.10;99.90
49731;DHT22;35622;52.008;5.426;2024-02-23T02:45:54;8.00;99.90
49731;DHT22;35622;52.008;5.426;2024-02-23T02:48:20;8.00;99.90
49731;DHT22;35622;52.008;5.426;2024-02-23T02:50:45;8.00;99.90
49731;DHT22;35622;52.008;5.426;2024-02-23T02:53:11;8.10;99.90
49731;DHT22;35622;52.008;5.426;2024-02-23T02:55:41;8.10;99.90
49731;DHT22;35622;52.008;5.426;2024-02-23T02:58:06;8.00;99.90
49731;DHT22;35622;52.008;5.426;2024-02-23T03:00:32;8.20;99.90
49731;DHT22;35622;52.008;5.426;2024-02-23T03:02:57;8.50;99.90
49731;DHT22;35622;52.008;5.426;2024-02-23T03:05:23;8.40;99.90
49731;DHT22;35622;52.008;5.426;2024-02-23T03:07:49;8.20;99.90
49731;DHT22;35622;52.008;5.426;2024-02-23T03:10:14;8.20;99.90
49731;DHT22;35622;52.008;5.426;2024-02-23T03:12:41;8.20;99.90
49731;DHT22;35622;52.008;5.426;2024-02-23T03:15:06;8.20;99.90
49731;DHT22;35622;52.008;5.426;2024-02-23T03:17:32;8.10;99.90
49731;DHT22;35622;52.008;5.426;2024-02-23T03:19:58;8.00;99.90
49731;DHT22;35622;52.008;5.426;2024-02-23T03:22:24;7.80;99.90
49731;DHT22;35622;52.008;5.426;2024-02-23T03:24:50;7.70;99.90
49731;DHT22;35622;52.008;5.426;2024-02-23T03:27:15;7.70;99.90
49731;DHT22;35622;52.008;5.426;2024-02-23T03:29:41;7.90;99.90
49731;DHT22;35622;52.008;5.426;2024-02-23T03:32:07;7.90;99.90
49731;DHT22;35622;52.008;5.426;2024-02-23T03:34:33;7.70;99.90
49731;DHT22;35622;52.008;5.426;2024-02-23T03:36:58;7.70;99.90
49731;DHT22;35622;52.008;5.426;2024-02-23T03:39:25;7.70;99.90
49731;DHT22;35622;52.008;5.426;2024-02-23T03:41:51;7.70;99.90
49731;DHT22;35622;52.008;5.426;2024-02-23T03:44:16;7.80;99.90
49731;DHT22;35622;52.008;5.426;2024-02-23T03:46:42;7.60;99.90
49731;DHT22;35622;52.008;5.426;2024-02-23T03:49:07;7.60;99.90
49731;DHT22;35622;52.008;5.426;2024-02-23T03:51:33;7.60;99.90
49731;DHT22;35622;52.008;5.426;2024-02-23T03:54:02;7.40;99.90
49731;DHT22;35622;52.008;5.426;2024-02-23T03:56:28;7.50;99.90
49731;DHT22;35622;52.008;5.426;2024-02-23T03:58:54;7.50;99.90
49731;DHT22;35622;52.008;5.426;2024-02-23T04:01:19;7.50;99.90
49731;DHT22;35622;52.008;5.426;2024-02-23T04:03:45;7.80;99.90
49731;DHT22;35622;52.008;5.426;2024-02-23T04:06:10;7.90;99.90
49731;DHT22;35622;52.008;5.426;2024-02-23T04:08:36;7.90;99.90
49731;DHT22;35622;52.008;5.426;2024-02-23T04:11:02;8.00;99.90
49731;DHT22;35622;52.008;5.426;2024-02-23T04:13:28;7.90;99.90
49731;DHT22;35622;52.008;5.426;2024-02-23T04:15:53;8.10;99.90
49731;DHT22;35622;52.008;5.426;2024-02-23T04:18:19;8.10;99.90
49731;DHT22;35622;52.008;5.426;2024-02-23T04:20:45;8.10;99.90
49731;DHT22;35622;52.008;5.426;2024-02-23T04:23:10;8.20;99.90
49731;DHT22;35622;52.008;5.426;2024-02-23T04:25:36;8.10;99.90
49731;DHT22;35622;52.008;5.426;2024-02-23T04:28:02;7.90;99.90
49731;DHT22;35622;52.008;5.426;2024-02-23T04:30:27;7.90;99.90
49731;DHT22;35622;52.008;5.426;2024-02-23T04:32:53;7.90;99.90
49731;DHT22;35622;52.008;5.426;2024-02-23T04:35:19;7.90;99.90
49731;DHT22;35622;52.008;5.426;2024-02-23T04:37:44;7.90;99.90
49731;DHT22;35622;52.008;5.426;2024-02-23T04:40:11;8.00;99.90
49731;DHT22;35622;52.008;5.426;2024-02-23T04:42:37;8.00;99.90
49731;DHT22;35622;52.008;5.426;2024-02-23T04:45:04;8.10;99.90
49731;DHT22;35622;52.008;5.426;2024-02-23T04:47:30;8.00;99.90
49731;DHT22;35622;52.008;5.426;2024-02-23T04:49:55;8.20;99.90
49731;DHT22;35622;52.008;5.426;2024-02-23T04:52:21;8.20;99.90
49731;DHT22;35622;52.008;5.426;2024-02-23T04:54:46;8.30;99.90
49731;DHT22;35622;52.008;5.426;2024-02-23T04:57:12;8.20;99.90
49731;DHT22;35622;52.008;5.426;2024-02-23T04:59:37;8.30;99.90
49731;DHT22;35622;52.008;5.426;2024-02-23T05:02:03;8.30;99.90
49731;DHT22;35622;52.008;5.426;2024-02-23T05:04:29;8.20;99.90
49731;DHT22;35622;52.008;5.426;2024-02-23T05:06:55;8.40;99.90
49731;DHT22;35622;52.008;5.426;2024-02-23T05:09:21;8.50;99.90
49731;DHT22;35622;52.008;5.426;2024-02-23T05:11:46;8.60;99.90
49731;DHT22;35622;52.008;5.426;2024-02-23T05:14:12;8.70;99.90
49731;DHT22;35622;52.008;5.426;2024-02-23T05:16:38;8.70;99.90
49731;DHT22;35622;52.008;5.426;2024-02-23T05:19:04;8.50;99.90
49731;DHT22;35622;52.008;5.426;2024-02-23T05:21:29;8.60;99.90
49731;DHT22;35622;52.008;5.426;2024-02-23T05:23:55;8.70;99.90
49731;DHT22;35622;52.008;5.426;2024-02-23T05:26:20;8.30;99.90
49731;DHT22;35622;52.008;5.426;2024-02-23T05:28:46;8.30;99.90
49731;DHT22;35622;52.008;5.426;2024-02-23T05:31:11;8.20;99.90
49731;DHT22;35622;52.008;5.426;2024-02-23T05:33:37;8.40;99.90
49731;DHT22;35622;52.008;5.426;2024-02-23T05:36:04;8.60;99.90
49731;DHT22;35622;52.008;5.426;2024-02-23T05:38:30;8.60;99.90
49731;DHT22;35622;52.008;5.426;2024-02-23T05:40:56;8.70;99.90
49731;DHT22;35622;52.008;5.426;2024-02-23T05:43:22;8.50;99.90
49731;DHT22;35622;52.008;5.426;2024-02-23T05:45:47;8.60;99.90
49731;DHT22;35622;52.008;5.426;2024-02-23T05:48:13;8.60;99.90
49731;DHT22;35622;52.008;5.426;2024-02-23T05:50:39;8.40;99.90
49731;DHT22;35622;52.008;5.426;2024-02-23T05:53:04;8.50;99.90
49731;DHT22;35622;52.008;5.426;2024-02-23T05:55:30;8.60;99.90
49731;DHT22;35622;52.008;5.426;2024-02-23T05:57:56;8.60;99.90
49731;DHT22;35622;52.008;5.426;2024-02-23T06:00:22;8.60;99.90
49731;DHT22;35622;52.008;5.426;2024-02-23T06:02:47;8.60;99.90
49731;DHT22;35622;52.008;5.426;2024-02-23T06:05:13;8.70;99.90
49731;DHT22;35622;52.008;5.426;2024-02-23T06:07:39;8.70;99.90
49731;DHT22;35622;52.008;5.426;2024-02-23T06:10:05;8.80;99.90
49731;DHT22;35622;52.008;5.426;2024-02-23T06:12:31;8.90;99.90
49731;DHT22;35622;52.008;5.426;2024-02-23T06:14:57;9.00;99.90
49731;DHT22;35622;52.008;5.426;2024-02-23T06:17:23;8.70;99.90
49731;DHT22;35622;52.008;5.426;2024-02-23T06:19:49;8.70;99.90
49731;DHT22;35622;52.008;5.426;2024-02-23T06:22:15;8.70;99.90
49731;DHT22;35622;52.008;5.426;2024-02-23T06:24:49;8.70;99.90
49731;DHT22;35622;52.008;5.426;2024-02-23T06:27:15;8.60;99.90
49731;DHT22;35622;52.008;5.426;2024-02-23T06:29:40;8.70;99.90
49731;DHT22;35622;52.008;5.426;2024-02-23T06:32:06;8.70;99.90
49731;DHT22;35622;52.008;5.426;2024-02-23T06:34:31;8.90;99.90
49731;DHT22;35622;52.008;5.426;2024-02-23T06:36:57;8.90;99.90
49731;DHT22;35622;52.008;5.426;2024-02-23T06:39:23;9.00;99.60
49731;DHT22;35622;52.008;5.426;2024-02-23T06:41:48;9.10;99.70
49731;DHT22;35622;52.008;5.426;2024-02-23T06:44:14;9.10;99.40
49731;DHT22;35622;52.008;5.426;2024-02-23T06:46:39;9.00;99.40
49731;DHT22;35622;52.008;5.426;2024-02-23T06:49:06;9.00;98.80
49731;DHT22;35622;52.008;5.426;2024-02-23T06:51:32;9.00;99.40
49731;DHT22;35622;52.008;5.426;2024-02-23T06:53:58;9.00;99.40
49731;DHT22;35622;52.008;5.426;2024-02-23T06:56:23;9.30;99.30
49731;DHT22;35622;52.008;5.426;2024-02-23T06:58:49;9.30;98.90
49731;DHT22;35622;52.008;5.426;2024-02-23T07:01:15;9.30;98.80
49731;DHT22;35622;52.008;5.426;2024-02-23T07:03:40;9.20;99.00
49731;DHT22;35622;52.008;5.426;2024-02-23T07:06:10;9.20;98.60
49731;DHT22;35622;52.008;5.426;2024-02-23T07:08:36;9.20;98.40
49731;DHT22;35622;52.008;5.426;2024-02-23T07:11:02;9.00;98.40
49731;DHT22;35622;52.008;5.426;2024-02-23T07:13:27;9.20;98.90
49731;DHT22;35622;52.008;5.426;2024-02-23T07:15:53;8.90;99.10
49731;DHT22;35622;52.008;5.426;2024-02-23T07:18:21;8.70;99.10
49731;DHT22;35622;52.008;5.426;2024-02-23T07:20:47;8.60;99.60
49731;DHT22;35622;52.008;5.426;2024-02-23T07:23:12;8.80;99.90
49731;DHT22;35622;52.008;5.426;2024-02-23T07:25:38;9.00;99.10
49731;DHT22;35622;52.008;5.426;2024-02-23T07:28:04;9.20;98.90
49731;DHT22;35622;52.008;5.426;2024-02-23T07:30:29;9.20;98.60
49731;DHT22;35622;52.008;5.426;2024-02-23T07:32:55;9.20;98.60
49731;DHT22;35622;52.008;5.426;2024-02-23T07:35:21;9.20;98.20
49731;DHT22;35622;52.008;5.426;2024-02-23T07:37:46;9.10;98.50
49731;DHT22;35622;52.008;5.426;2024-02-23T07:40:12;9.20;98.60
49731;DHT22;35622;52.008;5.426;2024-02-23T07:42:38;9.40;98.00
49731;DHT22;35622;52.008;5.426;2024-02-23T07:45:04;9.50;98.00
49731;DHT22;35622;52.008;5.426;2024-02-23T07:47:33;9.20;97.60
49731;DHT22;35622;52.008;5.426;2024-02-23T07:49:59;9.20;98.70
49731;DHT22;35622;52.008;5.426;2024-02-23T07:52:25;9.30;98.30
49731;DHT22;35622;52.008;5.426;2024-02-23T07:54:53;9.50;97.80
49731;DHT22;35622;52.008;5.426;2024-02-23T07:57:19;9.60;97.90
49731;DHT22;35622;52.008;5.426;2024-02-23T07:59:45;9.80;97.60
49731;DHT22;35622;52.008;5.426;2024-02-23T08:02:11;10.00;97.50
49731;DHT22;35622;52.008;5.426;2024-02-23T08:04:37;9.80;96.40
49731;DHT22;35622;52.008;5.426;2024-02-23T08:07:03;9.80;97.00
49731;DHT22;35622;52.008;5.426;2024-02-23T08:09:29;9.60;97.50
49731;DHT22;35622;52.008;5.426;2024-02-23T08:11:55;9.50;96.60
49731;DHT22;35622;52.008;5.426;2024-02-23T08:14:20;9.30;97.70
49731;DHT22;35622;52.008;5.426;2024-02-23T08:16:46;9.30;97.60
49731;DHT22;35622;52.008;5.426;2024-02-23T08:19:12;9.50;97.60
49731;DHT22;35622;52.008;5.426;2024-02-23T08:21:38;9.40;97.20
49731;DHT22;35622;52.008;5.426;2024-02-23T08:24:04;9.30;97.30
49731;DHT22;35622;52.008;5.426;2024-02-23T08:26:30;9.30;97.70
49731;DHT22;35622;52.008;5.426;2024-02-23T08:28:55;9.40;97.50
49731;DHT22;35622;52.008;5.426;2024-02-23T08:31:21;9.30;97.50
49731;DHT22;35622;52.008;5.426;2024-02-23T08:33:47;9.30;97.50
49731;DHT22;35622;52.008;5.426;2024-02-23T08:36:12;9.30;97.40
49731;DHT22;35622;52.008;5.426;2024-02-23T08:38:38;9.10;97.60
49731;DHT22;35622;52.008;5.426;2024-02-23T08:41:04;9.00;97.80
49731;DHT22;35622;52.008;5.426;2024-02-23T08:43:29;9.30;97.50
49731;DHT22;35622;52.008;5.426;2024-02-23T08:45:55;9.30;97.30
49731;DHT22;35622;52.008;5.426;2024-02-23T08:48:20;9.20;97.30
49731;DHT22;35622;52.008;5.426;2024-02-23T08:50:46;9.40;97.30
49731;DHT22;35622;52.008;5.426;2024-02-23T08:53:12;9.30;97.30
49731;DHT22;35622;52.008;5.426;2024-02-23T08:55:37;9.50;97.30
49731;DHT22;35622;52.008;5.426;2024-02-23T08:58:03;9.40;97.70
49731;DHT22;35622;52.008;5.426;2024-02-23T09:00:31;9.70;97.60
49731;DHT22;35622;52.008;5.426;2024-02-23T09:02:56;9.70;96.90
49731;DHT22;35622;52.008;5.426;2024-02-23T09:05:22;9.70;96.50
49731;DHT22;35622;52.008;5.426;2024-02-23T09:07:48;9.50;96.70
49731;DHT22;35622;52.008;5.426;2024-02-23T09:10:13;9.40;97.80
49731;DHT22;35622;52.008;5.426;2024-02-23T09:12:39;9.50;97.50
49731;DHT22;35622;52.008;5.426;2024-02-23T09:15:05;9.80;97.80
49731;DHT22;35622;52.008;5.426;2024-02-23T09:17:31;9.70;97.50
49731;DHT22;35622;52.008;5.426;2024-02-23T09:19:57;9.70;96.70
49731;DHT22;35622;52.008;5.426;2024-02-23T09:22:22;9.70;97.90
49731;DHT22;35622;52.008;5.426;2024-02-23T09:24:49;9.50;97.80
49731;DHT22;35622;52.008;5.426;2024-02-23T09:27:14;9.60;98.00
49731;DHT22;35622;52.008;5.426;2024-02-23T09:29:41;9.80;98.00
49731;DHT22;35622;52.008;5.426;2024-02-23T09:32:07;9.90;97.80
49731;DHT22;35622;52.008;5.426;2024-02-23T09:34:33;9.90;97.80
49731;DHT22;35622;52.008;5.426;2024-02-23T09:36:58;9.90;97.60
49731;DHT22;35622;52.008;5.426;2024-02-23T09:39:24;10.00;97.20
49731;DHT22;35622;52.008;5.426;2024-02-23T09:41:52;10.00;97.00
49731;DHT22;35622;52.008;5.426;2024-02-23T09:44:18;10.00;96.90
49731;DHT22;35622;52.008;5.426;2024-02-23T09:46:46;9.70;97.60
49731;DHT22;35622;52.008;5.426;2024-02-23T09:49:12;9.80;98.20
49731;DHT22;35622;52.008;5.426;2024-02-23T09:51:39;9.80;98.40
49731;DHT22;35622;52.008;5.426;2024-02-23T09:54:04;9.50;98.90
49731;DHT22;35622;52.008;5.426;2024-02-23T09:56:30;9.60;99.00
49731;DHT22;35622;52.008;5.426;2024-02-23T09:59:00;9.70;98.90
49731;DHT22;35622;52.008;5.426;2024-02-23T10:01:30;9.70;99.00
49731;DHT22;35622;52.008;5.426;2024-02-23T10:03:58;9.80;99.20
49731;DHT22;35622;52.008;5.426;2024-02-23T10:06:25;9.60;98.70
49731;DHT22;35622;52.008;5.426;2024-02-23T10:08:50;9.50;99.40
49731;DHT22;35622;52.008;5.426;2024-02-23T10:11:20;9.50;99.10
49731;DHT22;35622;52.008;5.426;2024-02-23T10:13:48;9.70;99.30
49731;DHT22;35622;52.008;5.426;2024-02-23T10:16:20;9.80;98.70
49731;DHT22;35622;52.008;5.426;2024-02-23T10:18:49;9.90;98.80
49731;DHT22;35622;52.008;5.426;2024-02-23T10:21:16;10.00;98.80
49731;DHT22;35622;52.008;5.426;2024-02-23T10:23:43;10.00;98.40
49731;DHT22;35622;52.008;5.426;2024-02-23T10:26:09;10.10;98.90
49731;DHT22;35622;52.008;5.426;2024-02-23T10:28:37;10.10;98.20
49731;DHT22;35622;52.008;5.426;2024-02-23T10:31:04;10.20;98.30
49731;DHT22;35622;52.008;5.426;2024-02-23T10:33:31;10.40;98.20
49731;DHT22;35622;52.008;5.426;2024-02-23T10:35:57;10.60;97.50
49731;DHT22;35622;52.008;5.426;2024-02-23T10:38:28;10.50;97.10
49731;DHT22;35622;52.008;5.426;2024-02-23T10:40:58;10.50;97.00
49731;DHT22;35622;52.008;5.426;2024-02-23T10:43:33;10.00;97.60
49731;DHT22;35622;52.008;5.426;2024-02-23T10:46:00;10.00;98.10
49731;DHT22;35622;52.008;5.426;2024-02-23T10:48:28;10.00;98.30
49731;DHT22;35622;52.008;5.426;2024-02-23T10:50:55;10.10;98.70
49731;DHT22;35622;52.008;5.426;2024-02-23T10:53:23;10.20;98.20
49731;DHT22;35622;52.008;5.426;2024-02-23T10:55:55;10.30;98.40
49731;DHT22;35622;52.008;5.426;2024-02-23T10:58:22;10.30;97.80
49731;DHT22;35622;52.008;5.426;2024-02-23T11:00:48;10.00;97.80
49731;DHT22;35622;52.008;5.426;2024-02-23T11:03:15;10.00;97.70
49731;DHT22;35622;52.008;5.426;2024-02-23T11:05:41;9.90;98.40
49731;DHT22;35622;52.008;5.426;2024-02-23T11:08:07;9.70;99.10
49731;DHT22;35622;52.008;5.426;2024-02-23T11:10:42;9.70;98.70
49731;DHT22;35622;52.008;5.426;2024-02-23T11:13:08;10.10;98.50
49731;DHT22;35622;52.008;5.426;2024-02-23T11:15:34;10.00;97.70
49731;DHT22;35622;52.008;5.426;2024-02-23T11:18:21;10.10;98.00
49731;DHT22;35622;52.008;5.426;2024-02-23T11:20:54;10.30;98.10
49731;DHT22;35622;52.008;5.426;2024-02-23T11:23:20;10.20;98.00
49731;DHT22;35622;52.008;5.426;2024-02-23T11:25:59;10.40;97.60
49731;DHT22;35622;52.008;5.426;2024-02-23T11:28:30;10.50;97.60
49731;DHT22;35622;52.008;5.426;2024-02-23T11:30:57;10.60;97.10
49731;DHT22;35622;52.008;5.426;2024-02-23T11:33:28;10.70;97.30
49731;DHT22;35622;52.008;5.426;2024-02-23T11:36:07;10.80;97.40
49731;DHT22;35622;52.008;5.426;2024-02-23T11:38:33;10.90;96.90
49731;DHT22;35622;52.008;5.426;2024-02-23T11:41:02;11.20;96.90
49731;DHT22;35622;52.008;5.426;2024-02-23T11:43:28;11.50;96.30
49731;DHT22;35622;52.008;5.426;2024-02-23T11:45:54;11.50;95.40
49731;DHT22;35622;52.008;5.426;2024-02-23T11:48:20;11.40;95.40
49731;DHT22;35622;52.008;5.426;2024-02-23T11:50:48;11.60;95.90
49731;DHT22;35622;52.008;5.426;2024-02-23T11:53:16;11.60;95.10
49731;DHT22;35622;52.008;5.426;2024-02-23T11:55:42;11.40;95.50
49731;DHT22;35622;52.008;5.426;2024-02-23T11:58:08;11.40;95.70
49731;DHT22;35622;52.008;5.426;2024-02-23T12:00:34;11.40;95.20
49731;DHT22;35622;52.008;5.426;2024-02-23T12:03:00;11.40;95.30
49731;DHT22;35622;52.008;5.426;2024-02-23T12:05:26;11.40;95.40
49731;DHT22;35622;52.008;5.426;2024-02-23T12:07:52;11.40;95.30
49731;DHT22;35622;52.008;5.426;2024-02-23T12:10:18;11.40;96.00
49731;DHT22;35622;52.008;5.426;2024-02-23T12:12:44;11.50;96.20
49731;DHT22;35622;52.008;5.426;2024-02-23T12:15:10;11.80;95.90
49731;DHT22;35622;52.008;5.426;2024-02-23T12:17:36;12.00;95.20
49731;DHT22;35622;52.008;5.426;2024-02-23T12:20:03;11.60;95.20
49731;DHT22;35622;52.008;5.426;2024-02-23T12:22:29;11.60;94.90
49731;DHT22;35622;52.008;5.426;2024-02-23T12:24:59;11.40;95.50
49731;DHT22;35622;52.008;5.426;2024-02-23T12:27:25;11.20;95.60
49731;DHT22;35622;52.008;5.426;2024-02-23T12:29:52;11.10;95.20
49731;DHT22;35622;52.008;5.426;2024-02-23T12:32:20;11.00;95.60
49731;DHT22;35622;52.008;5.426;2024-02-23T12:34:46;11.10;95.20
49731;DHT22;35622;52.008;5.426;2024-02-23T12:37:15;11.20;95.40
49731;DHT22;35622;52.008;5.426;2024-02-23T12:39:41;11.30;95.40
49731;DHT22;35622;52.008;5.426;2024-02-23T12:42:07;11.40;94.60
49731;DHT22;35622;52.008;5.426;2024-02-23T12:44:33;11.50;95.10
49731;DHT22;35622;52.008;5.426;2024-02-23T12:46:59;11.60;94.70
49731;DHT22;35622;52.008;5.426;2024-02-23T12:49:24;11.60;94.60
49731;DHT22;35622;52.008;5.426;2024-02-23T12:51:50;11.70;95.10
49731;DHT22;35622;52.008;5.426;2024-02-23T12:54:15;11.80;95.00
49731;DHT22;35622;52.008;5.426;2024-02-23T12:56:41;11.90;94.70
49731;DHT22;35622;52.008;5.426;2024-02-23T12:59:07;12.10;93.80
49731;DHT22;35622;52.008;5.426;2024-02-23T13:01:37;12.00;94.80
49731;DHT22;35622;52.008;5.426;2024-02-23T13:04:04;12.20;93.80
49731;DHT22;35622;52.008;5.426;2024-02-23T13:06:37;12.00;93.20
49731;DHT22;35622;52.008;5.426;2024-02-23T13:09:03;12.00;94.00
49731;DHT22;35622;52.008;5.426;2024-02-23T13:11:30;11.90;94.10
49731;DHT22;35622;52.008;5.426;2024-02-23T13:13:55;11.90;93.80
49731;DHT22;35622;52.008;5.426;2024-02-23T13:16:21;11.80;93.70
49731;DHT22;35622;52.008;5.426;2024-02-23T13:18:46;11.80;93.90
49731;DHT22;35622;52.008;5.426;2024-02-23T13:21:13;11.90;94.10
49731;DHT22;35622;52.008;5.426;2024-02-23T13:23:38;12.00;92.90
49731;DHT22;35622;52.008;5.426;2024-02-23T13:26:05;12.00;92.80
49731;DHT22;35622;52.008;5.426;2024-02-23T13:28:30;11.90;93.70
49731;DHT22;35622;52.008;5.426;2024-02-23T13:30:56;12.10;94.10
49731;DHT22;35622;52.008;5.426;2024-02-23T13:33:21;12.20;93.10
49731;DHT22;35622;52.008;5.426;2024-02-23T13:35:49;12.20;92.80
49731;DHT22;35622;52.008;5.426;2024-02-23T13:38:14;12.30;93.10
49731;DHT22;35622;52.008;5.426;2024-02-23T13:40:40;12.30;92.50
49731;DHT22;35622;52.008;5.426;2024-02-23T13:43:06;12.20;92.60
49731;DHT22;35622;52.008;5.426;2024-02-23T13:45:32;12.40;92.60
49731;DHT22;35622;52.008;5.426;2024-02-23T13:48:01;12.20;92.80
49731;DHT22;35622;52.008;5.426;2024-02-23T13:50:27;12.30;92.90
49731;DHT22;35622;52.008;5.426;2024-02-23T13:52:53;12.20;92.90
49731;DHT22;35622;52.008;5.426;2024-02-23T13:55:19;12.00;92.30
49731;DHT22;35622;52.008;5.426;2024-02-23T13:57:49;12.10;93.30
49731;DHT22;35622;52.008;5.426;2024-02-23T14:00:16;12.00;93.30
49731;DHT22;35622;52.008;5.426;2024-02-23T14:02:42;12.10;93.70
49731;DHT22;35622;52.008;5.426;2024-02-23T14:05:08;12.30;92.50
49731;DHT22;35622;52.008;5.426;2024-02-23T14:07:34;12.40;92.80
49731;DHT22;35622;52.008;5.426;2024-02-23T14:09:59;12.50;92.50
49731;DHT22;35622;52.008;5.426;2024-02-23T14:12:25;12.60;92.60
49731;DHT22;35622;52.008;5.426;2024-02-23T14:14:51;12.60;92.20
49731;DHT22;35622;52.008;5.426;2024-02-23T14:17:17;12.80;92.40
49731;DHT22;35622;52.008;5.426;2024-02-23T14:19:42;12.50;92.00
49731;DHT22;35622;52.008;5.426;2024-02-23T14:22:08;12.50;92.00
49731;DHT22;35622;52.008;5.426;2024-02-23T14:24:33;12.50;92.50
49731;DHT22;35622;52.008;5.426;2024-02-23T14:26:59;12.70;92.10
49731;DHT22;35622;52.008;5.426;2024-02-23T14:29:25;12.50;91.60
49731;DHT22;35622;52.008;5.426;2024-02-23T14:31:51;12.40;92.60
49731;DHT22;35622;52.008;5.426;2024-02-23T14:34:16;12.60;91.50
49731;DHT22;35622;52.008;5.426;2024-02-23T14:36:42;12.40;92.50
49731;DHT22;35622;52.008;5.426;2024-02-23T14:39:09;12.50;92.40
49731;DHT22;35622;52.008;5.426;2024-02-23T14:41:35;12.60;91.20
49731;DHT22;35622;52.008;5.426;2024-02-23T14:44:01;12.70;92.00
49731;DHT22;35622;52.008;5.426;2024-02-23T14:46:26;12.80;92.20
49731;DHT22;35622;52.008;5.426;2024-02-23T14:48:52;13.00;92.10
49731;DHT22;35622;52.008;5.426;2024-02-23T14:51:19;13.00;90.70
49731;DHT22;35622;52.008;5.426;2024-02-23T14:53:44;12.60;90.00
49731;DHT22;35622;52.008;5.426;2024-02-23T14:56:10;12.90;91.20
49731;DHT22;35622;52.008;5.426;2024-02-23T14:58:35;12.80;90.30
49731;DHT22;35622;52.008;5.426;2024-02-23T15:01:01;13.00;91.20
49731;DHT22;35622;52.008;5.426;2024-02-23T15:03:27;13.20;90.10
49731;DHT22;35622;52.008;5.426;2024-02-23T15:05:52;13.10;91.30
49731;DHT22;35622;52.008;5.426;2024-02-23T15:08:18;13.10;90.60
49731;DHT22;35622;52.008;5.426;2024-02-23T15:10:44;13.00;89.70
49731;DHT22;35622;52.008;5.426;2024-02-23T15:13:09;13.10;90.40
49731;DHT22;35622;52.008;5.426;2024-02-23T15:15:35;13.10;91.00
49731;DHT22;35622;52.008;5.426;2024-02-23T15:18:06;13.20;90.40
49731;DHT22;35622;52.008;5.426;2024-02-23T15:20:32;13.20;90.20
49731;DHT22;35622;52.008;5.426;2024-02-23T15:22:57;13.10;90.50
49731;DHT22;35622;52.008;5.426;2024-02-23T15:25:23;12.80;90.90
49731;DHT22;35622;52.008;5.426;2024-02-23T15:27:49;12.80;90.20
49731;DHT22;35622;52.008;5.426;2024-02-23T15:30:15;12.80;90.10
49731;DHT22;35622;52.008;5.426;2024-02-23T15:32:41;12.60;91.00